Time;durP1;ratioP1;P1;durP2;ratioP2;P2;SDS_P1;SDS_P2;PMS_P1;PMS_P2;Temp;Humidity;BMP_temperature;BMP_pressure;BME280_temperature;BME280_humidity;BME280_pressure;Samples;Min_cycle;Max_cycle;Signal;HPM_P1;HPM_P2
2024/02/20 00:00:16;;;;;;;52.88;4.95;;;11.40;98.40;;;;;;5105277;28;20429;-80
2024/02/20 00:02:42;;;;;;;39.78;5.22;;;11.40;98.50;;;;;;5091138;28;20059;-79
2024/02/20 00:05:11;;;;;;;23.60;4.88;;;11.40;98.90;;;;;;5102913;28;20107;-79
2024/02/20 00:07:38;;;;;;;37.85;3.88;;;11.40;99.00;;;;;;5089161;28;20112;-80
2024/02/20 00:10:11;;;;;;;25.30;3.70;;;11.40;98.70;;;;;;5099699;28;20024;-80
2024/02/20 00:12:37;;;;;;;;;;;11.40;98.80;;;;;;5094135;28;20031;-80
2024/02/20 00:15:09;;;;;;;34.85;4.80;;;11.30;98.80;;;;;;5088756;28;19908;-80
2024/02/20 00:17:35;;;;;;;27.33;4.00;;;11.30;98.90;;;;;;5100433;28;20103;-79
2024/02/20 00:20:03;;;;;;;31.15;4.65;;;11.20;99.00;;;;;;5089584;28;20039;-80
2024/02/20 00:22:28;;;;;;;29.10;4.97;;;11.20;99.00;;;;;;5088601;28;20117;-79
2024/02/20 00:24:54;;;;;;;28.23;5.07;;;11.20;99.00;;;;;;5089397;28;20021;-79
2024/02/20 00:27:20;;;;;;;29.00;4.05;;;11.30;99.00;;;;;;5103146;28;20547;-80
2024/02/20 00:29:45;;;;;;;32.30;4.97;;;11.20;98.90;;;;;;5098254;28;20453;-79
2024/02/20 00:32:11;;;;;;;29.65;4.10;;;11.10;99.20;;;;;;5091839;28;20122;-79
2024/02/20 00:34:37;;;;;;;35.15;4.30;;;11.10;98.90;;;;;;5090548;28;20111;-80
2024/02/20 00:37:05;;;;;;;28.27;4.80;;;11.10;98.90;;;;;;5091339;28;20055;-82
2024/02/20 00:39:37;;;;;;;19.73;2.42;;;11.10;99.10;;;;;;5089513;28;20147;-80
2024/02/20 00:42:03;;;;;;;13.98;3.72;;;11.10;98.80;;;;;;5098644;28;20027;-80
2024/02/20 00:44:29;;;;;;;16.25;2.42;;;11.00;98.70;;;;;;5105025;28;20028;-80
2024/02/20 00:46:54;;;;;;;35.17;4.43;;;11.00;98.80;;;;;;5102466;28;20502;-80
2024/02/20 00:49:20;;;;;;;25.95;6.05;;;11.00;98.80;;;;;;5089791;28;20073;-79
2024/02/20 00:51:46;;;;;;;26.17;4.20;;;10.90;98.80;;;;;;4911851;28;5388906;-80
2024/02/20 00:54:11;;;;;;;27.33;4.13;;;10.90;98.90;;;;;;5092286;28;20660;-79
2024/02/20 00:56:37;;;;;;;11.45;2.35;;;10.90;98.80;;;;;;5089808;28;20028;-80
2024/02/20 00:59:03;;;;;;;33.38;4.43;;;10.90;98.70;;;;;;5098818;28;20047;-79
2024/02/20 01:01:29;;;;;;;16.83;2.58;;;10.90;98.70;;;;;;5102716;28;20077;-79
2024/02/20 01:03:55;;;;;;;8.38;1.40;;;10.90;98.70;;;;;;5097961;28;20032;-79
2024/02/20 01:06:20;;;;;;;13.20;3.40;;;10.80;98.60;;;;;;5092905;28;20024;-80
2024/02/20 01:08:46;;;;;;;9.68;1.83;;;10.80;98.50;;;;;;5097399;28;20483;-79
2024/02/20 01:11:13;;;;;;;15.88;2.75;;;10.70;98.60;;;;;;5106676;28;20072;-79
2024/02/20 01:13:38;;;;;;;11.30;3.53;;;10.60;98.70;;;;;;5101490;28;20701;-80
2024/02/20 01:16:04;;;;;;;9.57;2.75;;;10.50;98.80;;;;;;5102516;28;20028;-79
2024/02/20 01:18:30;;;;;;;5.38;1.90;;;10.40;98.90;;;;;;5089408;28;20028;-78
2024/02/20 01:20:56;;;;;;;15.70;3.05;;;10.40;99.10;;;;;;5102984;28;20063;-79
2024/02/20 01:23:22;;;;;;;6.00;2.15;;;10.40;99.10;;;;;;5088496;28;20023;-79
2024/02/20 01:25:48;;;;;;;37.47;4.75;;;10.30;99.10;;;;;;5100672;28;20459;-79
2024/02/20 01:28:13;;;;;;;19.65;2.75;;;10.30;99.10;;;;;;5100847;27;20032;-79
2024/02/20 01:30:41;;;;;;;9.77;2.35;;;10.20;99.20;;;;;;5117660;27;20039;-79
2024/02/20 01:33:07;;;;;;;27.33;3.00;;;10.20;99.30;;;;;;5094320;28;20032;-78
2024/02/20 01:35:34;;;;;;;15.70;3.50;;;10.20;99.40;;;;;;5088105;28;20030;-78
2024/02/20 01:38:00;;;;;;;11.30;1.45;;;10.20;99.40;;;;;;5100773;28;20584;-79
2024/02/20 01:40:26;;;;;;;19.08;3.15;;;10.20;99.40;;;;;;5094726;28;20026;-79
2024/02/20 01:42:56;;;;;;;10.13;2.90;;;10.20;99.30;;;;;;5097569;28;20736;-78
2024/02/20 01:45:29;;;;;;;9.70;3.38;;;10.10;99.40;;;;;;5094910;28;20384;-78
2024/02/20 01:47:56;;;;;;;10.15;3.33;;;10.10;99.40;;;;;;5103072;28;20123;-79
2024/02/20 01:50:22;;;;;;;12.82;2.08;;;10.10;99.40;;;;;;5093849;28;20046;-79
2024/02/20 01:52:48;;;;;;;6.60;1.55;;;10.10;99.40;;;;;;5088607;28;20040;-79
2024/02/20 01:55:15;;;;;;;5.57;0.77;;;10.10;99.40;;;;;;5100263;28;20031;-78
2024/02/20 01:57:41;;;;;;;25.80;3.10;;;10.10;99.50;;;;;;5087776;28;20039;-78
2024/02/20 02:00:11;;;;;;;6.93;2.33;;;10.00;99.50;;;;;;5090004;28;20036;-79
2024/02/20 02:02:41;;;;;;;12.70;3.33;;;10.10;99.50;;;;;;5093199;28;20024;-79
2024/02/20 02:05:07;;;;;;;2.63;1.27;;;10.00;99.50;;;;;;5101369;28;20522;-79
2024/02/20 02:07:32;;;;;;;13.63;2.67;;;10.00;99.50;;;;;;5089122;28;20493;-79
2024/02/20 02:09:58;;;;;;;11.38;3.13;;;10.00;99.50;;;;;;5100901;28;20036;-79
2024/02/20 02:12:24;;;;;;;9.75;3.38;;;10.00;99.50;;;;;;5099383;28;20047;-78
2024/02/20 02:14:49;;;;;;;17.10;4.93;;;10.00;99.60;;;;;;5091814;28;20032;-78
2024/02/20 02:17:15;;;;;;;8.25;1.92;;;9.90;99.50;;;;;;5089082;28;20111;-79
2024/02/20 02:19:41;;;;;;;2.67;1.77;;;10.00;99.50;;;;;;5087976;28;20044;-79
2024/02/20 02:22:07;;;;;;;19.35;4.07;;;9.90;99.40;;;;;;5094261;28;20023;-79
2024/02/20 02:24:36;;;;;;;6.57;1.67;;;10.00;99.50;;;;;;5092725;28;20480;-79
2024/02/20 02:27:03;;;;;;;11.30;2.90;;;9.90;99.50;;;;;;5093342;27;20035;-79
2024/02/20 02:29:29;;;;;;;15.80;1.90;;;9.80;99.50;;;;;;5105824;27;20025;-78
2024/02/20 02:31:58;;;;;;;17.45;3.47;;;9.90;99.60;;;;;;5088036;28;20028;-78
2024/02/20 02:34:24;;;;;;;15.80;2.25;;;9.80;99.60;;;;;;5101910;28;20044;-79
2024/02/20 02:36:50;;;;;;;9.70;2.78;;;9.80;99.70;;;;;;5100957;28;20498;-79
2024/02/20 02:39:17;;;;;;;3.10;1.83;;;9.80;99.70;;;;;;5100579;28;20398;-78
2024/02/20 02:41:43;;;;;;;7.20;1.52;;;9.80;99.70;;;;;;5092379;28;20115;-78
2024/02/20 02:44:09;;;;;;;6.07;1.67;;;9.80;99.80;;;;;;5086425;28;20494;-79
2024/02/20 02:46:35;;;;;;;27.60;2.63;;;9.80;99.80;;;;;;5094244;28;20379;-79
2024/02/20 02:49:01;;;;;;;14.77;3.40;;;9.80;99.80;;;;;;5092515;28;20051;-79
2024/02/20 02:51:32;;;;;;;19.67;3.15;;;9.70;99.80;;;;;;5105596;28;20044;-78
2024/02/20 02:53:59;;;;;;;2.38;1.85;;;9.70;99.90;;;;;;5097408;28;20510;-80
2024/02/20 02:56:25;;;;;;;11.02;1.65;;;9.70;99.90;;;;;;5097792;28;20029;-78
2024/02/20 02:58:51;;;;;;;10.05;2.72;;;9.70;99.90;;;;;;5090537;28;20143;-79
2024/02/20 03:01:17;;;;;;;16.73;3.55;;;9.70;99.90;;;;;;5097124;28;20081;-79
2024/02/20 03:03:42;;;;;;;6.85;2.25;;;9.70;99.90;;;;;;5094292;28;20034;-79
2024/02/20 03:06:08;;;;;;;30.73;4.18;;;9.70;99.90;;;;;;5105732;28;20067;-79
2024/02/20 03:08:38;;;;;;;1.05;0.95;;;9.80;99.90;;;;;;5090680;28;20470;-79
2024/02/20 03:11:07;;;;;;;2.83;1.83;;;9.90;99.90;;;;;;5089268;28;20107;-79
2024/02/20 03:13:36;;;;;;;7.75;1.77;;;9.80;99.80;;;;;;5088561;28;20039;-79
2024/02/20 03:16:03;;;;;;;6.07;1.95;;;9.80;99.60;;;;;;5095049;28;20026;-79
2024/02/20 03:18:33;;;;;;;22.48;3.40;;;9.80;99.60;;;;;;5095202;28;20475;-79
2024/02/20 03:21:02;;;;;;;2.58;2.40;;;9.80;99.60;;;;;;5091009;28;20036;-79
2024/02/20 03:23:32;;;;;;;8.52;2.63;;;9.70;99.70;;;;;;5098764;28;20043;-79
2024/02/20 03:25:58;;;;;;;11.45;2.53;;;9.70;99.70;;;;;;5100772;28;20028;-79
2024/02/20 03:28:25;;;;;;;10.02;2.10;;;9.70;99.70;;;;;;5095545;28;20038;-78
2024/02/20 03:30:54;;;;;;;6.47;1.63;;;9.70;99.80;;;;;;5107285;28;20027;-79
2024/02/20 03:33:21;;;;;;;17.92;4.03;;;9.70;99.80;;;;;;5113343;28;20038;-79
2024/02/20 03:35:46;;;;;;;18.35;2.88;;;9.70;99.90;;;;;;5098277;28;20082;-79
2024/02/20 03:38:13;;;;;;;9.35;3.47;;;9.70;99.80;;;;;;5091030;28;20429;-79
2024/02/20 03:40:39;;;;;;;10.23;1.85;;;9.70;99.80;;;;;;5095443;28;20571;-79
2024/02/20 03:43:05;;;;;;;11.85;2.50;;;9.70;99.80;;;;;;5103677;28;20032;-79
2024/02/20 03:45:31;;;;;;;12.82;2.13;;;9.70;99.80;;;;;;5103985;28;20024;-79
2024/02/20 03:47:56;;;;;;;6.30;1.60;;;9.70;99.80;;;;;;5090797;28;20023;-79
2024/02/20 03:50:22;;;;;;;9.75;2.58;;;9.60;99.90;;;;;;5095655;27;20042;-78
2024/02/20 03:52:48;;;;;;;14.43;2.05;;;9.60;99.80;;;;;;5095112;28;20023;-79
2024/02/20 03:55:14;;;;;;;16.25;2.63;;;9.60;99.80;;;;;;5098917;27;20032;-79
2024/02/20 03:57:40;;;;;;;17.25;1.83;;;9.60;99.80;;;;;;5097529;28;20031;-79
2024/02/20 04:00:11;;;;;;;13.32;2.25;;;9.60;99.80;;;;;;5099654;28;20043;-79
2024/02/20 04:02:45;;;;;;;9.35;2.83;;;9.60;99.90;;;;;;5097237;28;20031;-79
2024/02/20 04:05:11;;;;;;;12.07;2.72;;;9.60;99.90;;;;;;5097616;28;20036;-78
2024/02/20 04:07:42;;;;;;;9.82;3.42;;;9.60;99.90;;;;;;5114669;27;20114;-79
2024/02/20 04:10:09;;;;;;;11.18;2.45;;;9.60;99.90;;;;;;5091890;28;20036;-79
2024/02/20 04:12:35;;;;;;;16.85;2.47;;;9.60;99.90;;;;;;5101517;28;20491;-79
2024/02/20 04:15:08;;;;;;;22.80;3.08;;;9.60;99.80;;;;;;5100153;28;20080;-78
2024/02/20 04:17:35;;;;;;;5.03;1.40;;;9.60;99.80;;;;;;5104341;28;20028;-78
2024/02/20 04:20:03;;;;;;;15.52;3.03;;;9.60;99.80;;;;;;5093571;28;20082;-78
2024/02/20 04:22:30;;;;;;;20.77;3.15;;;9.60;99.80;;;;;;5095238;28;20066;-79
2024/02/20 04:25:00;;;;;;;13.07;2.65;;;9.60;99.70;;;;;;5104487;28;20050;-80
2024/02/20 04:27:27;;;;;;;15.25;3.20;;;9.70;99.70;;;;;;5091759;28;20119;-79
2024/02/20 04:29:53;;;;;;;28.90;4.10;;;9.60;99.60;;;;;;5103960;28;20387;-79
2024/02/20 04:32:19;;;;;;;9.18;1.75;;;9.60;99.60;;;;;;5090632;28;20024;-79
2024/02/20 04:34:48;;;;;;;19.25;3.95;;;9.70;99.90;;;;;;5096962;28;20081;-79
2024/02/20 04:37:14;;;;;;;24.17;3.35;;;9.70;99.60;;;;;;5095146;28;20043;-79
2024/02/20 04:39:40;;;;;;;8.50;1.80;;;9.80;99.50;;;;;;5094330;28;20407;-80
2024/02/20 04:42:09;;;;;;;10.45;2.20;;;9.70;99.40;;;;;;5100256;27;20498;-80
2024/02/20 04:44:37;;;;;;;12.07;1.55;;;9.70;99.40;;;;;;5096225;28;20088;-80
2024/02/20 04:47:03;;;;;;;14.80;2.83;;;9.70;99.30;;;;;;5099751;28;20131;-80
2024/02/20 04:49:29;;;;;;;8.15;1.63;;;9.70;99.40;;;;;;5101511;28;20032;-79
2024/02/20 04:51:54;;;;;;;6.38;2.20;;;9.60;99.40;;;;;;5091116;28;20047;-79
2024/02/20 04:54:20;;;;;;;3.25;1.13;;;9.60;99.50;;;;;;5095136;28;20035;-81
2024/02/20 04:56:46;;;;;;;19.15;2.70;;;9.60;99.50;;;;;;5103341;28;20032;-80
2024/02/20 04:59:12;;;;;;;5.97;1.85;;;9.60;99.50;;;;;;5103421;28;20441;-80
2024/02/20 05:01:37;;;;;;;8.82;2.28;;;9.60;99.50;;;;;;5102851;28;20047;-82
2024/02/20 05:04:03;;;;;;;9.10;2.00;;;9.60;99.50;;;;;;5088478;28;20045;-80
2024/02/20 05:06:29;;;;;;;12.25;3.60;;;9.60;99.50;;;;;;5091038;28;20024;-79
2024/02/20 05:08:54;;;;;;;10.23;2.25;;;9.50;99.60;;;;;;5095062;28;20548;-81
2024/02/20 05:11:20;;;;;;;10.07;1.95;;;9.50;99.60;;;;;;5098313;28;20926;-80
2024/02/20 05:13:45;;;;;;;7.47;1.85;;;9.50;99.70;;;;;;5094013;28;20074;-78
2024/02/20 05:16:14;;;;;;;8.40;1.20;;;9.50;99.70;;;;;;5089765;28;20028;-80
2024/02/20 05:18:40;;;;;;;22.92;4.45;;;9.50;99.70;;;;;;5096267;28;20521;-80
2024/02/20 05:21:06;;;;;;;4.05;1.92;;;9.60;99.70;;;;;;5087665;28;20048;-80
2024/02/20 05:23:34;;;;;;;12.20;2.88;;;9.60;99.60;;;;;;5099345;28;20032;-80
2024/02/20 05:26:00;;;;;;;18.75;3.15;;;9.60;99.50;;;;;;5101151;28;20060;-80
2024/02/20 05:28:27;;;;;;;0.90;0.88;;;9.60;99.60;;;;;;5087881;28;20067;-81
2024/02/20 05:30:53;;;;;;;15.43;2.60;;;9.60;99.50;;;;;;5098119;28;20055;-80
2024/02/20 05:33:18;;;;;;;18.10;3.97;;;9.60;99.50;;;;;;5094413;28;20068;-80
2024/02/20 05:35:44;;;;;;;14.95;2.20;;;9.60;99.50;;;;;;5089760;28;20024;-80
2024/02/20 05:38:11;;;;;;;13.63;2.00;;;9.60;99.40;;;;;;5088366;28;20040;-80
2024/02/20 05:40:37;;;;;;;6.03;3.55;;;9.60;99.40;;;;;;5100084;27;20031;-80
2024/02/20 05:43:03;;;;;;;1.73;1.40;;;9.60;99.50;;;;;;5102985;27;20035;-80
2024/02/20 05:45:30;;;;;;;9.25;2.83;;;9.60;99.50;;;;;;5102563;28;20055;-80
2024/02/20 05:47:56;;;;;;;2.78;1.35;;;9.50;99.50;;;;;;5087534;28;20077;-80
2024/02/20 05:50:23;;;;;;;8.93;1.75;;;9.60;99.60;;;;;;5101219;28;20375;-80
2024/02/20 05:52:48;;;;;;;11.60;2.55;;;9.60;99.60;;;;;;5089036;28;20046;-81
2024/02/20 05:55:14;;;;;;;22.92;2.97;;;9.60;99.50;;;;;;5086526;28;20024;-79
2024/02/20 05:57:40;;;;;;;13.30;3.22;;;9.60;99.50;;;;;;5092847;28;20043;-80
2024/02/20 06:00:06;;;;;;;10.32;3.83;;;9.60;99.50;;;;;;5092288;28;20093;-80
2024/02/20 06:02:32;;;;;;;1.58;1.42;;;9.60;99.50;;;;;;5101224;28;20028;-80
2024/02/20 06:04:58;;;;;;;8.77;1.98;;;9.60;99.40;;;;;;5095335;28;20031;-80
2024/02/20 06:07:24;;;;;;;19.15;1.63;;;9.60;99.40;;;;;;5102987;28;20034;-79
2024/02/20 06:09:50;;;;;;;12.43;2.13;;;9.60;99.40;;;;;;5087102;28;20139;-79
2024/02/20 06:12:15;;;;;;;0.55;0.55;;;9.70;99.40;;;;;;5089363;28;20020;-80
2024/02/20 06:14:44;;;;;;;15.63;2.67;;;9.70;99.40;;;;;;5088263;28;20534;-80
2024/02/20 06:17:12;;;;;;;8.07;1.73;;;9.60;99.40;;;;;;5088065;28;20059;-79
2024/02/20 06:19:38;;;;;;;13.23;3.40;;;9.60;99.50;;;;;;5100475;28;20040;-80
2024/02/20 06:22:03;;;;;;;5.88;1.27;;;9.60;99.50;;;;;;5092231;28;20023;-80
2024/02/20 06:24:29;;;;;;;22.15;3.22;;;9.60;99.50;;;;;;5096089;28;20019;-79
2024/02/20 06:26:55;;;;;;;11.68;1.60;;;9.60;99.60;;;;;;5098677;28;20450;-80
2024/02/20 06:29:21;;;;;;;15.40;2.75;;;9.70;99.60;;;;;;5100258;28;20068;-79
2024/02/20 06:31:52;;;;;;;7.15;1.35;;;9.70;99.50;;;;;;5101533;28;20114;-79
2024/02/20 06:34:18;;;;;;;0.88;0.85;;;9.70;99.50;;;;;;5089061;28;20057;-81
2024/02/20 06:36:43;;;;;;;7.88;1.27;;;9.70;99.50;;;;;;5100810;28;20376;-79
2024/02/20 06:39:10;;;;;;;12.23;2.38;;;9.70;99.50;;;;;;5108443;28;20099;-80
2024/02/20 06:41:35;;;;;;;15.55;2.05;;;9.70;99.50;;;;;;5105759;27;20056;-81
2024/02/20 06:44:01;;;;;;;11.70;2.53;;;9.70;99.50;;;;;;5098967;28;20067;-80
2024/02/20 06:46:27;;;;;;;11.88;2.72;;;9.70;99.50;;;;;;5089411;28;20475;-80
2024/02/20 06:48:52;;;;;;;6.70;1.92;;;9.70;99.50;;;;;;5096441;28;20036;-80
2024/02/20 06:51:24;;;;;;;12.85;2.05;;;9.70;99.50;;;;;;5091452;28;20058;-80
2024/02/20 06:53:50;;;;;;;10.35;2.15;;;9.70;99.50;;;;;;5088961;28;20028;-80
2024/02/20 06:56:15;;;;;;;6.57;2.10;;;9.70;99.50;;;;;;5088130;28;20498;-80
2024/02/20 06:58:41;;;;;;;17.35;1.90;;;9.70;99.50;;;;;;5094297;28;20041;-80
2024/02/20 07:01:08;;;;;;;9.95;1.52;;;9.70;99.60;;;;;;5095111;28;20431;-79
2024/02/20 07:03:33;;;;;;;11.98;1.92;;;9.60;99.70;;;;;;5093006;28;20032;-80
2024/02/20 07:05:59;;;;;;;4.57;1.50;;;9.60;99.80;;;;;;5098361;28;20529;-79
2024/02/20 07:08:25;;;;;;;6.68;1.65;;;9.60;99.90;;;;;;5087963;28;20028;-80
2024/02/20 07:10:50;;;;;;;9.40;2.42;;;9.60;99.90;;;;;;5086402;28;20035;-80
2024/02/20 07:13:18;;;;;;;13.60;3.90;;;9.60;99.90;;;;;;5088276;28;20119;-80
2024/02/20 07:15:44;;;;;;;1.25;0.95;;;9.60;99.90;;;;;;5102727;28;20089;-79
2024/02/20 07:18:10;;;;;;;10.55;2.95;;;9.60;99.90;;;;;;5101270;28;20032;-79
2024/02/20 07:20:36;;;;;;;7.85;1.85;;;9.50;99.90;;;;;;5096393;28;20047;-80
2024/02/20 07:23:03;;;;;;;7.40;2.28;;;9.50;99.90;;;;;;5093267;28;20035;-79
2024/02/20 07:25:28;;;;;;;11.50;3.13;;;9.60;99.90;;;;;;5104185;28;20085;-80
2024/02/20 07:27:54;;;;;;;9.65;1.20;;;9.60;99.90;;;;;;5089586;28;20027;-80
2024/02/20 07:30:20;;;;;;;13.77;2.22;;;9.60;99.90;;;;;;5095389;28;20036;-80
2024/02/20 07:32:46;;;;;;;11.20;2.15;;;9.60;99.90;;;;;;5091574;28;20047;-79
2024/02/20 07:35:13;;;;;;;19.05;3.28;;;9.70;99.90;;;;;;5099918;28;20032;-76
2024/02/20 07:37:39;;;;;;;12.80;3.33;;;9.60;99.90;;;;;;5091225;28;20036;-79
2024/02/20 07:40:06;;;;;;;10.30;2.88;;;9.60;99.90;;;;;;5101239;27;20112;-78
2024/02/20 07:42:32;;;;;;;13.60;2.65;;;9.60;99.90;;;;;;5112165;27;20027;-76
2024/02/20 07:44:57;;;;;;;16.00;2.70;;;9.50;99.90;;;;;;5090326;28;20028;-79
2024/02/20 07:47:23;;;;;;;15.10;2.58;;;9.50;99.90;;;;;;5099157;28;20030;-82
2024/02/20 07:49:49;;;;;;;11.27;2.97;;;9.60;99.90;;;;;;5098718;28;20433;-80
2024/02/20 07:52:15;;;;;;;7.93;2.38;;;9.50;99.90;;;;;;5100919;28;20044;-78
2024/02/20 07:54:40;;;;;;;14.10;3.30;;;9.50;99.90;;;;;;5102853;28;20121;-80
2024/02/20 07:57:06;;;;;;;5.72;1.95;;;9.60;99.90;;;;;;5097371;28;20876;-81
2024/02/20 07:59:32;;;;;;;8.93;1.83;;;9.60;99.90;;;;;;5102835;28;20040;-80
2024/02/20 08:02:02;;;;;;;19.58;3.08;;;9.60;99.90;;;;;;5092923;28;20103;-76
2024/02/20 08:04:28;;;;;;;10.27;3.35;;;9.60;99.90;;;;;;5100846;28;20020;-81
2024/02/20 08:06:54;;;;;;;8.57;2.85;;;9.70;99.90;;;;;;5090310;28;21548;-80
2024/02/20 08:09:20;;;;;;;14.80;2.35;;;9.70;99.90;;;;;;5091929;28;20040;-80
2024/02/20 08:11:45;;;;;;;25.50;4.32;;;9.70;99.90;;;;;;5089100;28;20085;-79
2024/02/20 08:14:12;;;;;;;17.35;4.35;;;9.70;99.90;;;;;;5091608;28;20092;-81
2024/02/20 08:16:39;;;;;;;13.07;3.72;;;9.70;99.90;;;;;;5101967;28;20024;-80
2024/02/20 08:19:04;;;;;;;16.25;4.00;;;9.70;99.90;;;;;;5100042;28;20039;-81
2024/02/20 08:21:30;;;;;;;7.65;1.67;;;9.60;99.90;;;;;;5097474;28;20467;-82
2024/02/20 08:23:58;;;;;;;18.58;3.42;;;9.70;99.90;;;;;;5095080;28;20506;-79
2024/02/20 08:26:24;;;;;;;26.00;3.78;;;9.70;99.90;;;;;;5103462;28;20039;-79
2024/02/20 08:28:50;;;;;;;7.53;2.55;;;9.60;99.90;;;;;;5098150;28;20035;-79
2024/02/20 08:31:18;;;;;;;21.17;2.75;;;9.70;99.90;;;;;;5090700;28;20020;-78
2024/02/20 08:33:44;;;;;;;28.48;3.60;;;9.70;99.90;;;;;;5094366;28;20038;-78
2024/02/20 08:36:10;;;;;;;11.30;3.33;;;9.70;99.90;;;;;;5092849;28;20032;-79
2024/02/20 08:38:36;;;;;;;10.80;3.20;;;9.70;99.90;;;;;;5102128;28;20047;-75
2024/02/20 08:41:02;;;;;;;20.90;4.05;;;9.70;99.90;;;;;;5109260;27;20027;-79
2024/02/20 08:43:28;;;;;;;6.50;2.00;;;9.70;99.90;;;;;;5094418;28;20047;-79
2024/02/20 08:45:54;;;;;;;8.18;2.10;;;9.80;99.90;;;;;;5088265;28;20032;-79
2024/02/20 08:48:19;;;;;;;32.83;4.20;;;9.80;99.90;;;;;;5106097;28;20030;-79
2024/02/20 08:50:45;;;;;;;13.80;2.53;;;9.80;99.90;;;;;;5104496;28;20228;-78
2024/02/20 08:53:10;;;;;;;13.07;2.80;;;9.80;99.90;;;;;;5106030;28;20039;-79
2024/02/20 08:55:38;;;;;;;23.67;3.88;;;9.80;99.90;;;;;;5099206;28;20474;-79
2024/02/20 08:58:04;;;;;;;12.75;3.90;;;9.80;99.90;;;;;;5094229;28;20035;-79
2024/02/20 09:00:30;;;;;;;31.58;4.85;;;9.90;99.90;;;;;;5100882;28;20047;-82
2024/02/20 09:02:57;;;;;;;30.08;5.82;;;9.80;99.90;;;;;;5102199;28;20037;-79
2024/02/20 09:05:24;;;;;;;8.38;2.13;;;9.90;99.90;;;;;;5104689;28;20475;-79
2024/02/20 09:07:50;;;;;;;16.35;3.25;;;9.90;99.90;;;;;;5089644;28;20066;-79
2024/02/20 09:10:15;;;;;;;22.38;4.55;;;9.90;99.90;;;;;;5098943;28;20056;-79
2024/02/20 09:12:41;;;;;;;22.50;4.35;;;9.90;99.90;;;;;;5092714;28;20078;-80
2024/02/20 09:15:07;;;;;;;20.08;3.22;;;10.00;99.90;;;;;;5098924;28;20700;-82
2024/02/20 09:17:33;;;;;;;23.33;4.72;;;9.90;99.90;;;;;;5100287;28;20107;-83
2024/02/20 09:19:58;;;;;;;22.08;4.32;;;10.00;99.90;;;;;;5100147;28;20135;-80
2024/02/20 09:22:26;;;;;;;25.95;4.15;;;10.00;99.90;;;;;;5095129;28;20031;-81
2024/02/20 09:24:52;;;;;;;9.90;2.78;;;10.00;99.90;;;;;;5104706;28;20031;-79
2024/02/20 09:27:18;;;;;;;10.77;2.70;;;10.00;99.90;;;;;;5108188;28;20023;-79
2024/02/20 09:29:43;;;;;;;13.13;3.30;;;10.00;99.90;;;;;;5109402;28;20618;-79
2024/02/20 09:32:09;;;;;;;18.63;3.45;;;10.10;99.90;;;;;;5100418;28;20054;-79
2024/02/20 09:34:35;;;;;;;33.25;4.00;;;10.10;99.90;;;;;;5088919;28;20073;-80
2024/02/20 09:37:02;;;;;;;22.20;5.50;;;10.10;99.90;;;;;;5094417;28;20401;-79
2024/02/20 09:39:28;;;;;;;12.13;4.05;;;10.20;99.90;;;;;;5095530;28;20098;-79
2024/02/20 09:42:03;;;;;;;18.80;4.00;;;10.20;99.90;;;;;;5097457;27;20032;-80
2024/02/20 09:44:30;;;;;;;23.58;5.40;;;10.20;99.90;;;;;;5097209;28;20027;-80
2024/02/20 09:46:57;;;;;;;17.27;4.15;;;10.30;99.90;;;;;;5090131;28;20042;-80
2024/02/20 09:49:23;;;;;;;14.80;3.85;;;10.30;99.90;;;;;;5099717;28;20036;-80
2024/02/20 09:51:49;;;;;;;22.80;5.20;;;10.30;99.90;;;;;;5096295;28;20043;-80
2024/02/20 09:54:16;;;;;;;19.83;3.88;;;10.30;99.90;;;;;;5106317;28;20031;-80
2024/02/20 09:56:43;;;;;;;21.00;5.07;;;10.40;99.90;;;;;;5100373;28;20057;-80
2024/02/20 09:59:10;;;;;;;19.92;4.40;;;10.40;99.90;;;;;;5091534;28;20126;-79
2024/02/20 10:01:36;;;;;;;21.75;3.20;;;10.40;99.90;;;;;;5100496;28;20488;-80
2024/02/20 10:04:04;;;;;;;24.38;4.43;;;10.50;99.90;;;;;;5091471;28;20032;-79
2024/02/20 10:06:30;;;;;;;31.30;4.93;;;10.50;99.90;;;;;;5096224;28;20046;-80
2024/02/20 10:08:56;;;;;;;16.08;3.00;;;10.60;99.90;;;;;;5089272;28;20036;-79
2024/02/20 10:11:22;;;;;;;24.17;4.88;;;10.60;99.90;;;;;;5090022;28;20051;-80
2024/02/20 10:13:52;;;;;;;19.20;4.07;;;10.60;99.90;;;;;;5103005;28;20091;-80
2024/02/20 10:16:19;;;;;;;20.85;3.72;;;10.70;99.90;;;;;;5093313;28;20683;-81
2024/02/20 10:18:57;;;;;;;7.78;3.00;;;10.70;99.90;;;;;;5093539;28;20156;-80
2024/02/20 10:21:23;;;;;;;19.95;4.40;;;10.70;99.90;;;;;;5103259;28;20471;-80
2024/02/20 10:23:59;;;;;;;22.85;4.72;;;10.70;99.90;;;;;;5097095;28;20035;-80
2024/02/20 10:26:26;;;;;;;7.95;2.80;;;10.80;99.90;;;;;;5102940;28;20027;-81
2024/02/20 10:28:52;;;;;;;13.90;4.18;;;10.80;99.90;;;;;;5092543;28;20016;-80
2024/02/20 10:31:17;;;;;;;12.23;3.30;;;10.80;99.90;;;;;;5104704;28;20035;-80
2024/02/20 10:33:51;;;;;;;10.60;3.58;;;10.90;99.90;;;;;;5096283;28;20151;-80
2024/02/20 10:36:21;;;;;;;9.20;4.07;;;10.90;99.90;;;;;;5096639;28;20044;-83
2024/02/20 10:38:47;;;;;;;13.15;3.75;;;10.90;99.90;;;;;;5087589;28;20191;-84
2024/02/20 10:41:15;;;;;;;19.65;5.32;;;10.90;99.90;;;;;;5104740;28;20080;-85
2024/02/20 10:43:45;;;;;;;19.60;4.85;;;10.90;99.90;;;;;;5089753;28;20145;-81
2024/02/20 10:46:12;;;;;;;7.72;2.72;;;10.90;99.90;;;;;;5096471;28;20028;-83
2024/02/20 10:48:39;;;;;;;17.25;3.58;;;11.00;99.90;;;;;;5088260;28;20039;-85
2024/02/20 10:51:06;;;;;;;15.63;4.45;;;11.00;99.90;;;;;;5092763;28;20055;-85
2024/02/20 10:53:33;;;;;;;20.50;4.95;;;11.00;99.90;;;;;;5105349;28;20074;-84
2024/02/20 10:56:02;;;;;;;12.60;3.65;;;11.00;99.90;;;;;;5087216;28;20589;-83
2024/02/20 10:58:29;;;;;;;13.43;3.30;;;11.10;99.90;;;;;;5095065;28;20028;-83
2024/02/20 11:00:56;;;;;;;18.50;4.35;;;11.10;99.90;;;;;;5092607;28;20387;-83
2024/02/20 11:03:22;;;;;;;9.40;2.05;;;11.10;99.90;;;;;;5098412;28;20031;-84
2024/02/20 11:05:51;;;;;;;20.52;3.47;;;11.10;99.90;;;;;;5091387;28;20044;-85
2024/02/20 11:08:30;;;;;;;32.45;5.22;;;11.20;99.90;;;;;;5099362;28;20077;-85
2024/02/20 11:11:08;;;;;;;23.38;5.60;;;11.20;99.90;;;;;;5095111;28;20196;-83
2024/02/20 11:13:33;;;;;;;15.18;4.28;;;11.20;99.90;;;;;;5092388;28;20050;-82
2024/02/20 11:16:12;;;;;;;5.00;3.25;;;11.20;99.90;;;;;;5098864;28;20140;-82
2024/02/20 11:18:38;;;;;;;4.25;2.13;;;11.20;99.90;;;;;;5097578;28;20074;-82
2024/02/20 11:21:06;;;;;;;5.18;3.13;;;11.30;99.90;;;;;;5105257;28;20036;-83
2024/02/20 11:23:32;;;;;;;8.52;2.58;;;11.30;99.90;;;;;;5101896;28;20035;-83
2024/02/20 11:26:08;;;;;;;11.35;2.72;;;11.40;99.90;;;;;;5095124;28;20032;-81
2024/02/20 11:28:34;;;;;;;23.33;4.57;;;11.40;99.90;;;;;;5105991;28;20110;-82
2024/02/20 11:31:05;;;;;;;20.13;4.70;;;11.40;99.90;;;;;;5112726;28;20051;-82
2024/02/20 11:33:31;;;;;;;19.38;5.30;;;11.40;99.90;;;;;;5095404;28;20046;-82
2024/02/20 11:36:01;;;;;;;3.67;2.47;;;11.50;99.90;;;;;;5093251;28;20088;-82
2024/02/20 11:38:27;;;;;;;11.48;4.10;;;11.50;99.90;;;;;;5091403;28;20024;-82
2024/02/20 11:40:53;;;;;;;25.15;4.50;;;11.50;99.90;;;;;;5099855;28;20039;-81
2024/02/20 11:43:27;;;;;;;18.65;4.70;;;11.60;99.90;;;;;;5104339;28;20024;-81
2024/02/20 11:46:00;;;;;;;14.43;4.85;;;11.60;99.90;;;;;;5091106;28;20036;-81
2024/02/20 11:48:26;;;;;;;14.70;4.75;;;11.60;99.90;;;;;;5092947;28;20024;-79
2024/02/20 11:50:58;;;;;;;21.08;5.50;;;11.60;99.90;;;;;;5099843;28;20059;-85
2024/02/20 11:53:23;;;;;;;30.30;4.13;;;11.60;99.90;;;;;;5092545;28;20054;-84
2024/02/20 11:55:55;;;;;;;17.02;3.80;;;11.60;99.90;;;;;;5099075;28;20066;-82
2024/02/20 11:58:21;;;;;;;27.17;5.15;;;11.70;99.90;;;;;;5104150;28;20019;-81
2024/02/20 12:00:54;;;;;;;20.23;5.70;;;11.60;99.90;;;;;;5090312;28;20040;-83
2024/02/20 12:03:38;;;;;;;22.95;5.28;;;11.70;99.90;;;;;;5097485;28;20081;-83
2024/02/20 12:06:05;;;;;;;10.15;3.85;;;11.70;99.90;;;;;;5099253;28;20114;-83
2024/02/20 12:08:41;;;;;;;25.42;6.35;;;11.70;99.90;;;;;;5093902;28;20047;-84
2024/02/20 12:11:08;;;;;;;27.63;5.07;;;11.70;99.90;;;;;;5096210;28;20114;-75
2024/02/20 12:13:34;;;;;;;21.08;5.13;;;11.70;99.90;;;;;;5095451;28;20027;-79
2024/02/20 12:16:00;;;;;;;28.85;5.63;;;11.70;99.90;;;;;;5091402;28;20448;-80
2024/02/20 12:18:27;;;;;;;33.10;6.55;;;11.70;99.90;;;;;;5104488;28;20031;-75
2024/02/20 12:21:06;;;;;;;27.92;4.38;;;11.70;99.90;;;;;;5094471;28;20028;-75
2024/02/20 12:23:33;;;;;;;23.20;3.97;;;11.70;99.90;;;;;;5095655;28;20544;-84
2024/02/20 12:26:09;;;;;;;17.15;3.78;;;11.70;99.90;;;;;;5094227;28;20135;-81
2024/02/20 12:28:36;;;;;;;31.95;5.70;;;11.70;99.90;;;;;;5097064;28;20067;-76
2024/02/20 12:31:04;;;;;;;27.50;4.22;;;11.70;99.90;;;;;;5113396;28;20057;-84
2024/02/20 12:33:31;;;;;;;25.48;5.13;;;11.70;99.90;;;;;;5108153;28;20051;-84
2024/02/20 12:36:00;;;;;;;17.42;3.63;;;11.80;99.90;;;;;;5098859;28;20038;-86
2024/02/20 12:38:29;;;;;;;25.25;4.80;;;11.80;99.90;;;;;;5103000;28;20055;-78
2024/02/20 12:40:58;;;;;;;20.02;4.05;;;11.80;99.90;;;;;;5107135;27;20035;-79
2024/02/20 12:43:24;;;;;;;13.88;3.90;;;11.80;99.90;;;;;;5097056;27;20032;-79